Time;durP1;ratioP1;P1;durP2;ratioP2;P2;SDS_P1;SDS_P2;PMS_P1;PMS_P2;Temp;Humidity;BMP_temperature;BMP_pressure;BME280_temperature;BME280_humidity;BME280_pressure;Samples;Min_cycle;Max_cycle;Signal;HPM_P1;HPM_P2
2021/05/14 00:02:06;;;;;;;1.12;0.60;;;27.30;24.30;;;;;;4357755;32;20672;-32
2021/05/14 00:04:33;;;;;;;2.37;0.62;;;27.30;24.40;;;;;;4358477;32;20074;-36
2021/05/14 00:06:59;;;;;;;3.87;0.68;;;27.20;24.40;;;;;;4357978;32;20152;-38
2021/05/14 00:09:25;;;;;;;1.73;0.60;;;27.30;24.40;;;;;;4358153;32;20173;-37
2021/05/14 00:11:52;;;;;;;2.30;0.65;;;27.10;24.40;;;;;;4357697;32;20477;-35
2021/05/14 00:14:18;;;;;;;1.62;0.60;;;27.10;24.50;;;;;;4358181;32;20603;-35
2021/05/14 00:16:45;;;;;;;3.42;0.70;;;27.00;24.40;;;;;;4344397;32;20178;-37
2021/05/14 00:19:11;;;;;;;2.95;0.60;;;26.90;24.20;;;;;;4344083;32;20079;-36
2021/05/14 00:21:38;;;;;;;2.80;0.62;;;26.90;24.40;;;;;;4357746;32;20098;-32
2021/05/14 00:24:05;;;;;;;1.83;0.70;;;26.90;24.40;;;;;;4344221;32;20063;-31
2021/05/14 00:26:31;;;;;;;1.30;0.60;;;26.80;24.40;;;;;;4358157;32;20074;-30
2021/05/14 00:28:58;;;;;;;2.80;0.80;;;26.80;24.30;;;;;;4343842;32;20282;-33
2021/05/14 00:31:24;;;;;;;2.40;0.90;;;26.70;24.30;;;;;;4344065;32;20510;-31
2021/05/14 00:33:51;;;;;;;1.48;0.70;;;26.70;24.30;;;;;;4357732;32;20059;-31
2021/05/14 00:36:17;;;;;;;3.72;1.00;;;26.70;24.40;;;;;;4357731;32;20106;-32
2021/05/14 00:38:43;;;;;;;1.87;0.75;;;26.60;24.40;;;;;;4357801;32;20078;-32
2021/05/14 00:41:10;;;;;;;3.28;0.77;;;26.60;24.50;;;;;;4357875;32;20074;-35
2021/05/14 00:43:36;;;;;;;4.05;0.75;;;26.60;24.40;;;;;;4358003;32;20059;-37
2021/05/14 00:46:03;;;;;;;1.80;0.80;;;26.50;24.50;;;;;;4360415;32;20530;-38
2021/05/14 00:48:30;;;;;;;2.20;0.60;;;26.50;24.50;;;;;;4347286;32;20441;-37
2021/05/14 00:50:57;;;;;;;2.78;0.73;;;26.50;24.50;;;;;;4360722;32;20081;-31
2021/05/14 00:53:23;;;;;;;3.15;0.60;;;26.50;24.60;;;;;;4360497;32;20082;-30
2021/05/14 00:55:50;;;;;;;1.23;0.55;;;26.40;24.50;;;;;;4360665;32;20166;-31
2021/05/14 00:58:16;;;;;;;2.47;0.70;;;26.40;24.50;;;;;;4349586;32;20518;-32
2021/05/14 01:00:42;;;;;;;2.00;0.90;;;26.30;24.50;;;;;;4345793;33;20095;-30
2021/05/14 01:03:14;;;;;;;1.92;0.68;;;26.30;24.60;;;;;;4345832;33;20105;-33
2021/05/14 01:05:43;;;;;;;1.98;0.95;;;26.30;24.60;;;;;;4345690;33;20173;-32
2021/05/14 01:08:10;;;;;;;2.45;0.65;;;26.30;24.70;;;;;;4345443;33;20096;-31
2021/05/14 01:10:37;;;;;;;2.67;0.90;;;26.30;24.70;;;;;;4345806;33;20073;-32
2021/05/14 01:13:04;;;;;;;1.80;1.05;;;26.30;24.60;;;;;;4345847;33;20066;-31
2021/05/14 01:15:30;;;;;;;1.77;0.70;;;26.30;24.60;;;;;;4345372;33;20541;-30
2021/05/14 01:17:57;;;;;;;0.90;0.77;;;26.30;24.60;;;;;;4345501;33;20052;-31
2021/05/14 01:20:30;;;;;;;3.50;0.70;;;26.30;24.50;;;;;;4344964;33;20671;-31
2021/05/14 01:22:56;;;;;;;3.17;0.70;;;26.30;24.80;;;;;;4345217;33;20066;-31
2021/05/14 01:25:23;;;;;;;2.25;0.80;;;26.30;24.60;;;;;;4331598;33;20080;-32
2021/05/14 01:27:49;;;;;;;4.55;1.08;;;26.40;24.50;;;;;;4345095;33;20167;-32
2021/05/14 01:30:17;;;;;;;2.33;1.15;;;26.40;25.00;;;;;;4345203;33;20063;-31
2021/05/14 01:32:44;;;;;;;10.43;2.45;;;26.50;24.50;;;;;;4331605;33;20055;-32
2021/05/14 01:35:11;;;;;;;3.60;1.02;;;26.70;24.50;;;;;;4345046;33;20492;-32
2021/05/14 01:37:41;;;;;;;6.07;1.73;;;26.80;24.10;;;;;;4345321;33;20514;-32
2021/05/14 01:40:08;;;;;;;4.60;0.88;;;26.90;24.30;;;;;;4345052;33;20609;-31
2021/05/14 01:42:35;;;;;;;5.57;2.28;;;27.10;24.30;;;;;;4345040;33;20078;-30
2021/05/14 01:45:01;;;;;;;5.03;1.50;;;27.30;24.00;;;;;;4344822;33;20109;-30
2021/05/14 01:47:28;;;;;;;4.65;0.60;;;27.40;23.90;;;;;;4298280;33;20194;-30
2021/05/14 01:49:54;;;;;;;10.00;1.95;;;27.60;23.70;;;;;;4298621;33;20177;-31
2021/05/14 01:52:21;;;;;;;4.22;0.73;;;27.70;24.30;;;;;;4298432;33;20064;-30
2021/05/14 01:54:50;;;;;;;3.35;0.82;;;27.90;23.80;;;;;;4298659;33;20154;-34
2021/05/14 01:57:16;;;;;;;2.53;0.77;;;28.00;23.60;;;;;;4298552;33;20072;-31
2021/05/14 01:59:42;;;;;;;5.65;0.90;;;28.20;23.40;;;;;;4298279;33;20072;-33
2021/05/14 02:02:09;;;;;;;1.48;0.77;;;28.30;23.60;;;;;;4298357;33;20718;-34
2021/05/14 02:04:35;;;;;;;3.83;0.93;;;28.40;23.30;;;;;;4298393;33;20059;-31
2021/05/14 02:07:02;;;;;;;4.62;0.82;;;28.50;23.60;;;;;;4298271;33;20667;-34
2021/05/14 02:09:28;;;;;;;1.45;0.70;;;28.60;23.70;;;;;;4286133;33;20075;-32
2021/05/14 02:11:55;;;;;;;4.57;1.10;;;28.70;23.50;;;;;;4297861;33;20142;-30
2021/05/14 02:14:22;;;;;;;5.62;0.80;;;28.80;23.30;;;;;;4297862;33;20522;-32
2021/05/14 02:16:48;;;;;;;4.60;1.00;;;28.90;23.50;;;;;;4298382;33;20625;-31
2021/05/14 02:19:16;;;;;;;4.18;0.90;;;29.10;23.50;;;;;;4298322;33;20638;-31
2021/05/14 02:21:42;;;;;;;2.65;0.62;;;29.30;23.90;;;;;;4297980;33;20079;-30
2021/05/14 02:24:09;;;;;;;2.67;0.65;;;29.50;23.10;;;;;;4306591;33;20711;-31
2021/05/14 02:26:36;;;;;;;2.17;0.75;;;29.70;22.90;;;;;;4344417;33;20059;-31
2021/05/14 02:29:03;;;;;;;10.52;2.47;;;29.90;23.00;;;;;;4344218;33;20455;-32
2021/05/14 02:31:30;;;;;;;2.50;0.95;;;30.10;22.70;;;;;;4344541;33;20129;-33
2021/05/14 02:33:57;;;;;;;10.73;1.12;;;30.30;22.60;;;;;;4344540;33;20069;-32
2021/05/14 02:36:23;;;;;;;4.43;0.82;;;30.60;22.60;;;;;;4344417;33;20159;-31
2021/05/14 02:38:50;;;;;;;4.10;0.70;;;30.80;22.50;;;;;;4344194;33;20061;-30
2021/05/14 02:41:17;;;;;;;3.58;0.80;;;31.10;22.10;;;;;;4344270;33;20055;-31
2021/05/14 02:43:43;;;;;;;5.10;1.20;;;31.40;22.30;;;;;;4344274;33;20514;-31
2021/05/14 02:46:10;;;;;;;1.42;0.73;;;31.70;22.10;;;;;;4344480;33;20622;-32
2021/05/14 02:48:37;;;;;;;2.50;0.80;;;31.90;21.80;;;;;;4343913;33;20094;-31
2021/05/14 02:51:05;;;;;;;2.60;0.70;;;32.20;21.80;;;;;;4344220;33;20070;-31
2021/05/14 02:53:31;;;;;;;2.58;0.90;;;32.50;21.70;;;;;;4344108;33;20075;-31
2021/05/14 02:55:58;;;;;;;2.50;0.80;;;32.80;21.50;;;;;;4343618;33;20599;-31
2021/05/14 02:58:24;;;;;;;2.45;0.75;;;33.00;21.50;;;;;;4355735;32;20101;-32
2021/05/14 03:00:51;;;;;;;3.12;0.70;;;33.20;21.30;;;;;;4358742;32;20078;-31
2021/05/14 03:03:17;;;;;;;4.65;1.20;;;33.50;20.90;;;;;;4358815;32;20065;-31
2021/05/14 03:05:44;;;;;;;5.20;1.33;;;33.80;20.80;;;;;;4358712;32;20457;-32
2021/05/14 03:08:10;;;;;;;3.22;1.10;;;34.10;20.60;;;;;;4358052;32;20826;-31
2021/05/14 03:10:37;;;;;;;7.22;1.12;;;34.30;20.30;;;;;;4358671;32;20183;-31
2021/05/14 03:13:04;;;;;;;2.53;0.73;;;34.60;20.60;;;;;;4358308;32;20059;-32
2021/05/14 03:15:31;;;;;;;5.60;0.70;;;34.80;20.40;;;;;;4345068;32;20077;-30
2021/05/14 03:17:57;;;;;;;4.82;0.82;;;35.10;19.90;;;;;;4358615;32;20139;-32
2021/05/14 03:20:23;;;;;;;1.50;0.80;;;35.20;20.70;;;;;;4358358;32;20096;-32
2021/05/14 03:22:50;;;;;;;4.53;0.90;;;35.30;19.90;;;;;;4358655;32;20059;-31
2021/05/14 03:25:17;;;;;;;1.30;0.98;;;35.50;20.00;;;;;;4358254;32;20114;-32
2021/05/14 03:27:43;;;;;;;2.08;0.85;;;35.60;20.20;;;;;;4358765;32;20166;-31
2021/05/14 03:30:11;;;;;;;6.55;1.42;;;35.80;19.80;;;;;;4358147;32;20094;-33
2021/05/14 03:32:37;;;;;;;3.08;1.00;;;36.00;19.70;;;;;;4358139;32;20160;-33
2021/05/14 03:35:05;;;;;;;5.57;0.73;;;36.20;19.70;;;;;;4358496;32;20058;-30
2021/05/14 03:37:31;;;;;;;4.18;0.90;;;36.30;19.80;;;;;;4358254;32;20085;-30
2021/05/14 03:40:03;;;;;;;4.53;0.70;;;36.60;19.50;;;;;;4358136;32;20535;-31
2021/05/14 03:42:30;;;;;;;4.53;1.48;;;36.80;19.90;;;;;;4358107;32;20073;-34
2021/05/14 03:44:56;;;;;;;3.15;0.68;;;36.90;19.60;;;;;;4358438;32;20577;-30
2021/05/14 03:47:23;;;;;;;2.85;0.93;;;37.10;19.20;;;;;;4358359;32;20061;-33
2021/05/14 03:49:50;;;;;;;9.07;1.02;;;37.30;19.10;;;;;;4331931;32;20094;-32
2021/05/14 03:52:16;;;;;;;34.20;2.80;;;37.50;19.10;;;;;;4358238;32;20082;-31
2021/05/14 03:54:43;;;;;;;3.45;0.95;;;37.80;19.40;;;;;;4358351;32;20059;-32
2021/05/14 03:57:09;;;;;;;15.48;1.50;;;38.00;18.80;;;;;;4353797;32;20090;-32
2021/05/14 03:59:38;;;;;;;2.87;0.70;;;38.10;19.00;;;;;;4343166;33;20077;-30
2021/05/14 04:02:04;;;;;;;4.40;0.70;;;38.40;18.90;;;;;;4329512;33;20467;-30
2021/05/14 04:04:31;;;;;;;8.25;1.10;;;38.60;19.10;;;;;;4343386;33;20596;-32
2021/05/14 04:07:00;;;;;;;4.07;0.82;;;38.80;18.80;;;;;;4343051;33;20100;-30
2021/05/14 04:09:30;;;;;;;5.32;1.05;;;39.00;18.90;;;;;;4343022;33;20149;-31
2021/05/14 04:14:29;;;;;;;4.72;0.70;;;39.20;18.70;;;;;;4329776;33;20061;-31
2021/05/14 04:17:04;;;;;;;6.68;0.88;;;39.30;18.60;;;;;;4343245;33;20066;-33
2021/05/14 04:19:31;;;;;;;5.43;0.73;;;39.40;18.70;;;;;;4345418;32;20608;-32
2021/05/14 04:21:58;;;;;;;2.30;0.80;;;39.50;18.80;;;;;;4332157;33;20070;-30
2021/05/14 04:24:26;;;;;;;5.55;0.85;;;39.50;18.90;;;;;;4345740;33;20051;-32
2021/05/14 04:26:55;;;;;;;1.42;0.73;;;39.50;18.50;;;;;;4346293;33;20079;-30
2021/05/14 04:29:21;;;;;;;3.47;0.77;;;39.60;18.80;;;;;;4346089;33;20067;-32
2021/05/14 04:31:48;;;;;;;2.10;0.70;;;39.70;18.80;;;;;;4332530;33;20066;-30
2021/05/14 04:34:17;;;;;;;6.47;0.70;;;39.90;18.70;;;;;;4345954;33;20075;-31
2021/05/14 04:36:44;;;;;;;4.87;0.80;;;40.00;18.30;;;;;;4332508;33;20066;-32
2021/05/14 04:39:11;;;;;;;2.65;0.60;;;40.10;18.90;;;;;;4345588;33;20086;-33
2021/05/14 04:41:38;;;;;;;3.85;0.70;;;40.30;18.30;;;;;;4346195;33;20078;-32
2021/05/14 04:44:05;;;;;;;4.25;0.77;;;40.40;18.60;;;;;;4346089;33;20169;-30
2021/05/14 04:46:31;;;;;;;4.22;0.80;;;40.40;18.40;;;;;;4345410;33;20452;-30
2021/05/14 04:48:58;;;;;;;5.60;1.05;;;40.60;18.40;;;;;;4345885;33;20079;-32
2021/05/14 04:51:26;;;;;;;4.22;1.20;;;40.70;18.60;;;;;;4330828;33;20436;-31
2021/05/14 04:53:53;;;;;;;6.22;0.88;;;40.90;18.40;;;;;;4344961;33;20059;-32
2021/05/14 04:56:19;;;;;;;3.53;0.70;;;41.10;18.20;;;;;;4345636;33;20066;-30
2021/05/14 04:58:45;;;;;;;2.80;0.70;;;41.30;17.90;;;;;;4359194;32;20055;-31
2021/05/14 05:01:16;;;;;;;1.12;0.57;;;41.40;17.90;;;;;;4360434;32;20166;-32
2021/05/14 05:03:54;;;;;;;4.43;0.80;;;41.50;17.60;;;;;;4360402;32;20114;-32
2021/05/14 05:06:21;;;;;;;5.82;0.75;;;41.60;17.80;;;;;;4346478;32;20078;-33
2021/05/14 05:08:47;;;;;;;4.35;0.75;;;41.60;18.10;;;;;;4360569;32;20534;-30
2021/05/14 05:11:14;;;;;;;5.97;0.80;;;41.60;18.00;;;;;;4346166;32;20133;-31
2021/05/14 05:13:40;;;;;;;4.60;0.90;;;41.60;17.80;;;;;;4346315;32;20089;-37
2021/05/14 05:16:07;;;;;;;8.27;0.77;;;41.60;18.10;;;;;;4360414;32;20144;-32
2021/05/14 05:18:34;;;;;;;2.80;0.70;;;41.50;18.00;;;;;;4360282;32;20078;-31
2021/05/14 05:21:00;;;;;;;5.85;0.60;;;41.40;18.00;;;;;;4359966;32;20155;-32
2021/05/14 05:23:26;;;;;;;2.05;0.90;;;41.40;18.00;;;;;;4360240;32;20054;-30
2021/05/14 05:25:53;;;;;;;6.90;2.12;;;41.30;18.00;;;;;;4360072;32;20074;-33
2021/05/14 05:28:26;;;;;;;6.50;1.65;;;41.40;18.50;;;;;;4360253;32;20094;-31
2021/05/14 05:30:52;;;;;;;1.60;0.60;;;41.50;18.10;;;;;;4359774;32;20076;-30
2021/05/14 05:33:19;;;;;;;13.45;1.08;;;41.50;17.90;;;;;;4360333;32;20201;-32
2021/05/14 05:35:45;;;;;;;5.60;1.08;;;41.70;18.10;;;;;;4359677;32;20101;-30
2021/05/14 05:38:19;;;;;;;2.92;0.65;;;41.70;18.00;;;;;;4359830;32;20183;-31
2021/05/14 05:40:46;;;;;;;4.25;0.70;;;41.80;17.70;;;;;;4359746;32;20067;-31
2021/05/14 05:43:13;;;;;;;1.35;0.65;;;42.00;18.00;;;;;;4359465;32;20074;-31
2021/05/14 05:45:40;;;;;;;3.17;1.00;;;42.00;17.70;;;;;;4359731;32;20063;-32
2021/05/14 05:48:09;;;;;;;3.92;0.85;;;42.00;18.20;;;;;;4359846;32;20085;-32
2021/05/14 05:50:37;;;;;;;3.28;0.70;;;42.00;17.80;;;;;;4359559;32;20089;-31
2021/05/14 05:53:03;;;;;;;4.82;0.80;;;42.00;17.90;;;;;;4327249;33;20055;-32
2021/05/14 05:55:30;;;;;;;1.95;0.52;;;42.10;17.90;;;;;;4327632;33;20714;-31
2021/05/14 05:58:10;;;;;;;5.45;1.08;;;42.10;17.70;;;;;;4318262;33;20059;-33
2021/05/14 06:00:37;;;;;;;3.08;0.60;;;42.20;17.70;;;;;;4301700;33;20169;-30
2021/05/14 06:03:04;;;;;;;3.40;1.25;;;42.10;17.60;;;;;;4312647;33;20091;-31
2021/05/14 06:05:30;;;;;;;1.50;0.50;;;42.20;18.20;;;;;;4300418;33;20507;-32
2021/05/14 06:07:57;;;;;;;4.85;0.73;;;42.20;17.80;;;;;;4313040;33;20083;-34
2021/05/14 06:10:24;;;;;;;4.05;0.88;;;42.20;18.10;;;;;;4313393;33;20650;-31
2021/05/14 06:12:51;;;;;;;2.00;0.60;;;42.20;17.80;;;;;;4312200;33;20086;-36
2021/05/14 06:15:18;;;;;;;4.12;1.00;;;42.20;17.90;;;;;;4312736;33;20571;-36
2021/05/14 06:17:44;;;;;;;2.85;0.70;;;42.20;18.10;;;;;;4312468;33;20075;-37
2021/05/14 06:20:13;;;;;;;6.68;0.68;;;42.20;18.20;;;;;;4312592;33;20064;-35
2021/05/14 06:22:39;;;;;;;4.72;0.70;;;42.30;18.00;;;;;;4300533;33;20082;-30
2021/05/14 06:25:07;;;;;;;4.45;0.85;;;42.40;18.30;;;;;;4326005;33;20157;-30
2021/05/14 06:27:33;;;;;;;3.60;0.60;;;42.50;17.90;;;;;;4326890;33;20075;-33
2021/05/14 06:29:59;;;;;;;3.22;0.60;;;42.60;17.70;;;;;;4327036;33;20617;-30
2021/05/14 06:32:26;;;;;;;2.65;0.70;;;42.80;17.60;;;;;;4327603;33;20075;-33
2021/05/14 06:34:54;;;;;;;1.48;1.10;;;42.80;17.50;;;;;;4314897;33;20054;-32
2021/05/14 06:37:20;;;;;;;1.52;0.60;;;42.90;17.50;;;;;;4312183;33;20103;-31
2021/05/14 06:39:48;;;;;;;3.60;0.95;;;43.00;17.50;;;;;;4312247;33;20134;-31
2021/05/14 06:42:15;;;;;;;2.40;0.62;;;43.00;17.80;;;;;;4299628;33;20480;-34
2021/05/14 06:44:41;;;;;;;1.80;0.73;;;43.10;17.30;;;;;;4324894;33;20067;-32
2021/05/14 06:47:08;;;;;;;5.07;0.70;;;43.20;17.40;;;;;;4326942;33;20145;-31
2021/05/14 06:49:34;;;;;;;5.47;1.35;;;43.30;17.20;;;;;;4326768;33;20068;-30
2021/05/14 06:52:01;;;;;;;7.10;0.70;;;43.40;17.50;;;;;;4327116;33;20082;-32
2021/05/14 06:54:27;;;;;;;3.10;0.60;;;43.50;17.30;;;;;;4326764;33;20066;-30
2021/05/14 06:56:54;;;;;;;10.25;0.70;;;43.50;17.20;;;;;;4317450;33;20495;-34
2021/05/14 06:59:20;;;;;;;6.35;0.70;;;43.60;17.20;;;;;;4329067;33;20074;-31
2021/05/14 07:01:46;;;;;;;7.35;0.82;;;43.70;17.10;;;;;;4341375;33;20269;-30
2021/05/14 07:04:13;;;;;;;2.80;0.70;;;43.70;17.10;;;;;;4341364;33;20066;-30
2021/05/14 07:06:39;;;;;;;3.65;0.77;;;43.80;17.10;;;;;;4341437;33;20078;-30
2021/05/14 07:09:06;;;;;;;4.20;0.77;;;43.90;16.90;;;;;;4341119;33;20067;-31
2021/05/14 07:11:33;;;;;;;3.60;0.70;;;44.00;16.80;;;;;;4341155;33;20066;-31
2021/05/14 07:13:59;;;;;;;3.70;0.80;;;44.20;16.90;;;;;;4341382;33;20075;-30
2021/05/14 07:16:27;;;;;;;1.15;0.77;;;44.30;17.00;;;;;;4343598;32;20059;-31
2021/05/14 07:18:54;;;;;;;5.43;0.93;;;44.40;17.00;;;;;;4343607;32;20510;-32
2021/05/14 07:21:21;;;;;;;5.57;0.77;;;44.40;17.00;;;;;;4343510;32;20178;-32
2021/05/14 07:23:47;;;;;;;6.57;0.85;;;44.40;16.90;;;;;;4341722;33;20063;-34
2021/05/14 07:26:14;;;;;;;7.37;1.10;;;44.40;17.30;;;;;;4342295;33;20110;-32
2021/05/14 07:28:40;;;;;;;6.75;0.77;;;44.50;17.10;;;;;;4343486;32;20079;-31
2021/05/14 07:31:07;;;;;;;3.62;0.70;;;44.60;17.10;;;;;;4343245;32;20075;-30
2021/05/14 07:33:35;;;;;;;6.35;0.90;;;44.70;17.20;;;;;;4343563;32;20086;-32
2021/05/14 07:36:01;;;;;;;2.37;0.80;;;44.80;17.10;;;;;;4343621;32;20510;-32
2021/05/14 07:38:28;;;;;;;5.70;1.12;;;44.80;17.10;;;;;;4343639;32;20538;-31
2021/05/14 07:40:54;;;;;;;7.22;0.75;;;45.00;17.10;;;;;;4341940;33;20058;-31
2021/05/14 07:43:21;;;;;;;5.70;0.80;;;45.10;17.20;;;;;;4343410;32;20098;-33
2021/05/14 07:45:47;;;;;;;3.33;0.80;;;45.10;17.00;;;;;;4343134;32;20152;-35
2021/05/14 07:48:20;;;;;;;6.68;0.70;;;45.10;17.20;;;;;;4343065;32;20058;-30
2021/05/14 07:50:50;;;;;;;3.17;0.70;;;45.10;17.20;;;;;;4343047;32;20155;-31
2021/05/14 07:53:16;;;;;;;3.67;1.48;;;45.10;17.20;;;;;;4343074;32;20062;-32
2021/05/14 07:55:43;;;;;;;2.65;0.75;;;45.10;17.20;;;;;;4342849;32;20428;-31
2021/05/14 07:58:09;;;;;;;8.50;1.10;;;45.10;17.10;;;;;;4333103;32;20102;-30
2021/05/14 08:00:36;;;;;;;1.75;0.50;;;45.10;17.40;;;;;;4326762;33;20581;-32
2021/05/14 08:03:03;;;;;;;2.58;0.82;;;45.10;17.00;;;;;;4326725;33;20097;-31
2021/05/14 08:05:29;;;;;;;7.87;1.00;;;45.10;17.10;;;;;;4328284;33;20096;-30
2021/05/14 08:08:11;;;;;;;9.20;0.90;;;45.10;17.00;;;;;;4328269;33;20090;-31
2021/05/14 08:10:38;;;;;;;14.30;1.00;;;45.20;17.10;;;;;;4315734;33;20147;-31
2021/05/14 08:13:04;;;;;;;3.62;0.80;;;45.20;17.00;;;;;;4337539;33;20432;-31
2021/05/14 08:15:31;;;;;;;3.78;0.90;;;45.20;16.90;;;;;;4343485;33;20070;-30
2021/05/14 08:17:58;;;;;;;8.38;1.20;;;45.20;16.90;;;;;;4329550;33;20158;-31
2021/05/14 08:20:24;;;;;;;2.28;1.10;;;45.20;17.10;;;;;;4343118;33;20065;-31
2021/05/14 08:22:51;;;;;;;6.60;0.80;;;45.20;17.00;;;;;;4342911;33;20101;-32
2021/05/14 08:25:18;;;;;;;4.18;0.90;;;45.10;17.00;;;;;;4343212;33;20058;-29
2021/05/14 08:27:44;;;;;;;6.00;0.90;;;45.10;17.00;;;;;;4343297;33;20055;-31
2021/05/14 08:30:12;;;;;;;7.18;1.23;;;45.20;16.90;;;;;;4342951;33;20691;-32
2021/05/14 08:32:39;;;;;;;2.80;0.93;;;45.20;16.70;;;;;;4329095;33;20066;-32
2021/05/14 08:35:07;;;;;;;14.63;1.37;;;45.10;16.60;;;;;;4343114;33;20507;-31
2021/05/14 08:37:33;;;;;;;6.53;1.30;;;45.10;16.50;;;;;;4342982;33;20074;-34
2021/05/14 08:40:00;;;;;;;5.15;0.95;;;45.00;16.30;;;;;;4343121;33;20528;-31
2021/05/14 08:42:27;;;;;;;6.28;0.90;;;45.00;16.20;;;;;;4342420;33;20075;-31
2021/05/14 08:44:56;;;;;;;8.88;1.02;;;45.00;16.40;;;;;;4329033;33;20094;-32
2021/05/14 08:47:23;;;;;;;6.82;0.80;;;45.00;16.10;;;;;;4342820;33;20066;-32
2021/05/14 08:49:49;;;;;;;7.57;1.00;;;44.90;16.40;;;;;;4329319;33;20160;-31
2021/05/14 08:52:17;;;;;;;4.40;0.80;;;45.00;16.60;;;;;;4316878;33;20090;-30
2021/05/14 08:54:45;;;;;;;8.43;0.88;;;45.10;16.50;;;;;;4342837;33;20484;-30
2021/05/14 08:57:11;;;;;;;4.82;0.68;;;45.10;16.50;;;;;;4321516;32;20116;-31
2021/05/14 08:59:39;;;;;;;9.60;0.70;;;45.10;16.40;;;;;;4357674;32;20148;-33
2021/05/14 09:02:05;;;;;;;7.12;0.90;;;45.20;16.40;;;;;;4343306;32;20073;-35
2021/05/14 09:04:35;;;;;;;3.05;0.65;;;45.00;16.30;;;;;;4357572;32;20062;-32
2021/05/14 09:07:12;;;;;;;2.53;0.60;;;45.00;16.50;;;;;;4360070;32;20530;-30
2021/05/14 09:09:39;;;;;;;6.60;0.68;;;45.00;16.60;;;;;;4348083;32;20074;-31
2021/05/14 09:12:06;;;;;;;2.80;0.60;;;45.00;16.30;;;;;;4346119;32;20512;-30
2021/05/14 09:14:42;;;;;;;4.25;0.77;;;44.90;16.20;;;;;;4360382;32;20149;-30
2021/05/14 09:17:13;;;;;;;3.05;0.75;;;44.90;16.20;;;;;;4360412;32;20580;-32
2021/05/14 09:19:42;;;;;;;6.50;0.80;;;44.90;16.40;;;;;;4360455;32;20071;-32
2021/05/14 09:22:22;;;;;;;1.95;1.02;;;44.80;16.30;;;;;;4360149;32;20050;-30
2021/05/14 09:25:06;;;;;;;5.32;0.50;;;44.80;16.30;;;;;;4360584;32;20062;-31
2021/05/14 09:27:39;;;;;;;1.10;0.50;;;44.90;16.30;;;;;;4360246;32;20533;-31
2021/05/14 09:30:10;;;;;;;30.45;1.85;;;44.80;16.30;;;;;;4334036;32;20415;-32
2021/05/14 09:32:38;;;;;;;10.55;0.73;;;44.80;16.30;;;;;;4360204;32;20529;-31
2021/05/14 09:35:06;;;;;;;8.95;0.80;;;44.80;16.00;;;;;;4346309;32;20160;-30
2021/05/14 09:37:33;;;;;;;1.52;0.50;;;44.80;15.70;;;;;;4346699;32;20047;-31
2021/05/14 09:40:20;;;;;;;5.70;0.50;;;44.90;15.70;;;;;;4346043;32;20106;-31
2021/05/14 09:42:49;;;;;;;3.83;1.15;;;45.00;15.70;;;;;;4359519;32;20063;-31
2021/05/14 09:45:26;;;;;;;1.58;0.60;;;45.10;15.80;;;;;;4359920;32;20522;-31
2021/05/14 09:48:27;;;;;;;1.15;0.55;;;45.10;15.70;;;;;;4359668;32;20062;-33
2021/05/14 09:50:55;;;;;;;5.70;0.88;;;45.20;15.70;;;;;;4327197;33;20091;-31
2021/05/14 09:53:22;;;;;;;10.25;0.52;;;45.10;15.60;;;;;;4327523;33;20083;-32
2021/05/14 09:56:04;;;;;;;3.08;0.80;;;45.00;15.80;;;;;;4327713;33;20066;-30
2021/05/14 09:58:32;;;;;;;10.82;0.88;;;44.80;15.80;;;;;;4327464;33;20082;-30
2021/05/14 10:01:00;;;;;;;10.55;1.37;;;44.70;15.90;;;;;;4327809;33;20665;-30
2021/05/14 10:03:30;;;;;;;4.93;0.60;;;44.80;16.20;;;;;;4327354;33;20539;-32
2021/05/14 10:05:57;;;;;;;10.27;1.35;;;44.70;15.90;;;;;;4327365;33;20092;-31
2021/05/14 10:08:25;;;;;;;4.95;0.70;;;45.00;16.60;;;;;;4315270;33;20168;-31
2021/05/14 10:10:51;;;;;;;5.85;0.80;;;45.00;16.00;;;;;;4315246;33;20544;-31
2021/05/14 10:13:18;;;;;;;7.70;0.80;;;45.10;15.90;;;;;;4327049;33;20077;-32
2021/05/14 10:15:44;;;;;;;5.93;0.57;;;45.20;16.00;;;;;;4315183;33;20102;-30
2021/05/14 10:18:17;;;;;;;7.60;0.50;;;45.00;15.80;;;;;;4315203;33;20178;-31
2021/05/14 10:20:45;;;;;;;3.80;0.70;;;45.00;15.90;;;;;;4326776;33;20676;-33
2021/05/14 10:23:12;;;;;;;5.47;0.73;;;44.90;16.10;;;;;;4314595;33;20510;-32
2021/05/14 10:25:39;;;;;;;6.30;0.80;;;44.80;16.00;;;;;;4315222;33;20621;-30
2021/05/14 10:28:20;;;;;;;2.92;0.60;;;44.70;16.10;;;;;;4333988;33;20083;-30
2021/05/14 10:31:06;;;;;;;3.65;0.77;;;44.40;16.20;;;;;;4332283;33;20145;-30
2021/05/14 10:33:43;;;;;;;3.05;0.70;;;44.10;16.60;;;;;;4343950;33;20075;-30
2021/05/14 10:36:20;;;;;;;5.68;0.50;;;43.90;16.50;;;;;;4344643;33;20102;-31
2021/05/14 10:39:20;;;;;;;4.10;1.15;;;43.70;16.40;;;;;;4344091;33;20077;-31
2021/05/14 10:42:15;;;;;;;6.57;1.05;;;43.60;16.60;;;;;;4344147;33;20078;-34
2021/05/14 10:44:54;;;;;;;6.62;0.55;;;43.50;16.50;;;;;;4343962;33;20070;-31
2021/05/14 10:47:39;;;;;;;5.70;0.70;;;43.40;16.70;;;;;;4343893;33;20178;-29
2021/05/14 10:50:13;;;;;;;5.15;0.70;;;43.30;16.90;;;;;;4344215;33;20069;-30
2021/05/14 10:53:29;;;;;;;10.55;1.00;;;43.10;16.90;;;;;;4297522;33;20075;-30
2021/05/14 10:56:11;;;;;;;7.05;0.93;;;42.90;17.20;;;;;;4294044;33;20087;-30
2021/05/14 10:59:01;;;;;;;8.23;0.70;;;42.80;17.30;;;;;;4310938;33;20141;-29
2021/05/14 11:01:43;;;;;;;2.25;0.70;;;42.70;17.20;;;;;;4311812;33;20079;-34
2021/05/14 11:04:15;;;;;;;9.23;0.95;;;42.60;17.20;;;;;;4312060;33;20170;-30
2021/05/14 11:06:43;;;;;;;7.32;0.90;;;42.60;17.50;;;;;;4312317;33;20554;-31
2021/05/14 11:09:11;;;;;;;6.20;1.33;;;42.40;17.50;;;;;;4311980;33;20178;-30
2021/05/14 11:12:02;;;;;;;8.15;0.70;;;42.20;17.90;;;;;;4311582;33;20113;-31
2021/05/14 11:14:45;;;;;;;4.95;0.70;;;42.00;18.10;;;;;;4311782;33;20126;-31
2021/05/14 11:17:16;;;;;;;4.20;0.80;;;41.90;18.40;;;;;;4311720;33;20084;-30
2021/05/14 11:19:50;;;;;;;13.00;0.80;;;41.70;18.40;;;;;;4312100;33;20080;-31
2021/05/14 11:22:27;;;;;;;7.22;1.37;;;41.60;19.00;;;;;;4311321;33;20083;-29
2021/05/14 11:25:13;;;;;;;19.48;2.25;;;41.50;18.50;;;;;;4328759;33;20054;-30
2021/05/14 11:27:42;;;;;;;13.57;0.90;;;41.40;18.60;;;;;;4328200;33;20163;-32
2021/05/14 11:30:13;;;;;;;6.68;1.12;;;41.20;18.90;;;;;;4327048;33;20068;-31
2021/05/14 11:32:41;;;;;;;9.38;1.23;;;41.00;19.00;;;;;;4329120;33;20170;-32
2021/05/14 11:35:18;;;;;;;4.78;0.65;;;40.70;19.10;;;;;;4328885;33;20059;-32
2021/05/14 11:37:56;;;;;;;6.20;0.85;;;40.50;19.10;;;;;;4328573;33;20526;-32
2021/05/14 11:40:27;;;;;;;4.53;0.98;;;40.30;19.40;;;;;;4328802;33;20507;-30
2021/05/14 11:42:55;;;;;;;9.02;1.40;;;40.00;19.40;;;;;;4328582;33;20055;-30
2021/05/14 11:45:26;;;;;;;6.47;0.80;;;39.90;19.70;;;;;;4328410;33;20075;-30
2021/05/14 11:47:57;;;;;;;3.78;0.80;;;39.70;19.60;;;;;;4326988;33;20105;-30
2021/05/14 11:50:34;;;;;;;5.97;1.10;;;39.60;19.70;;;;;;4328800;33;20086;-31
2021/05/14 11:53:04;;;;;;;11.05;1.23;;;39.50;19.90;;;;;;4328437;33;20072;-32
2021/05/14 11:55:30;;;;;;;10.30;0.95;;;39.50;20.00;;;;;;4328291;33;20146;-32
2021/05/14 11:57:58;;;;;;;9.20;0.90;;;39.60;20.00;;;;;;4328161;33;20052;-32
2021/05/14 12:00:34;;;;;;;7.10;0.90;;;39.60;20.00;;;;;;4328033;33;20169;-32
2021/05/14 12:03:06;;;;;;;7.75;0.90;;;39.60;19.90;;;;;;4328363;33;20071;-33
2021/05/14 12:05:33;;;;;;;10.35;1.02;;;39.50;19.90;;;;;;4328342;33;20071;-31
2021/05/14 12:08:16;;;;;;;8.27;0.93;;;39.50;20.20;;;;;;4328441;33;20059;-31
2021/05/14 12:11:03;;;;;;;10.57;0.90;;;39.40;20.10;;;;;;4328506;33;20070;-31
2021/05/14 12:13:40;;;;;;;8.00;1.20;;;39.40;20.10;;;;;;4340383;33;20090;-31
2021/05/14 12:16:12;;;;;;;11.43;1.33;;;39.40;20.30;;;;;;4329546;33;20112;-30
2021/05/14 12:18:54;;;;;;;9.35;1.00;;;39.40;20.40;;;;;;4343203;33;20051;-29
2021/05/14 12:21:26;;;;;;;3.83;1.20;;;39.50;20.40;;;;;;4329303;33;20070;-33
2021/05/14 12:23:53;;;;;;;7.90;1.25;;;39.50;20.20;;;;;;4343075;33;20159;-33
2021/05/14 12:26:19;;;;;;;10.80;1.33;;;39.60;20.30;;;;;;4343331;33;20075;-29
2021/05/14 12:28:47;;;;;;;11.98;1.12;;;39.70;20.10;;;;;;4343018;33;20090;-30
2021/05/14 12:31:16;;;;;;;7.90;1.00;;;39.70;20.30;;;;;;4329886;33;20187;-31
2021/05/14 12:33:56;;;;;;;9.45;0.90;;;39.60;20.20;;;;;;4343156;33;20086;-32
2021/05/14 12:36:28;;;;;;;12.68;1.85;;;39.70;20.30;;;;;;4342897;33;20462;-31
2021/05/14 12:39:16;;;;;;;6.70;0.85;;;39.60;20.20;;;;;;4343175;32;20155;-31
2021/05/14 12:41:59;;;;;;;14.82;1.75;;;39.70;20.30;;;;;;4345902;33;20097;-31
2021/05/14 12:44:35;;;;;;;12.88;1.17;;;39.70;20.30;;;;;;4345530;33;20071;-30
2021/05/14 12:47:24;;;;;;;6.45;1.10;;;39.60;20.30;;;;;;4345809;33;20078;-37
2021/05/14 12:50:05;;;;;;;9.93;1.15;;;39.50;20.50;;;;;;4345834;33;20077;-34
2021/05/14 12:52:35;;;;;;;11.85;1.85;;;39.30;20.50;;;;;;4332181;33;20235;-34
2021/05/14 12:55:11;;;;;;;13.62;1.27;;;39.20;20.70;;;;;;4345721;33;20074;-32
2021/05/14 12:57:40;;;;;;;14.05;1.00;;;39.10;20.70;;;;;;4352685;32;20050;-29
2021/05/14 13:00:13;;;;;;;9.02;0.80;;;39.00;20.80;;;;;;4346531;32;20498;-31